createdAt,value
2023-06-29T00:02:30.701Z,4.00
2023-06-29T00:05:07.356Z,3.33
2023-06-29T00:07:42.697Z,3.67
2023-06-29T00:10:11.956Z,3.47
2023-06-29T00:12:43.522Z,4.13
2023-06-29T00:15:11.065Z,3.53
2023-06-29T00:17:39.826Z,3.67
2023-06-29T00:20:14.108Z,4.22
2023-06-29T00:22:51.643Z,4.15
2023-06-29T00:25:19.474Z,4.35
2023-06-29T00:27:47.491Z,4.38
2023-06-29T00:30:16.256Z,3.85
2023-06-29T00:32:46.349Z,3.50
2023-06-29T00:37:57.379Z,3.97
2023-06-29T00:40:27.696Z,3.72
2023-06-29T00:45:36.835Z,3.95
2023-06-29T00:48:06.700Z,4.07
2023-06-29T00:50:39.007Z,3.90
2023-06-29T00:53:18.829Z,4.18
2023-06-29T00:55:49.333Z,4.10
2023-06-29T00:58:17.347Z,3.75
2023-06-29T01:00:48.723Z,3.90
2023-06-29T01:03:16.002Z,3.30
2023-06-29T01:05:49.721Z,4.38
2023-06-29T01:08:36.063Z,3.67
2023-06-29T01:13:37.731Z,3.22
2023-06-29T01:16:07.647Z,3.58
2023-06-29T01:18:44.464Z,4.25
2023-06-29T01:21:22.104Z,4.30
2023-06-29T01:23:54.304Z,3.67
2023-06-29T01:26:28.382Z,4.05
2023-06-29T01:29:03.137Z,4.00
2023-06-29T01:31:39.747Z,4.28
2023-06-29T01:34:20.658Z,4.00
2023-06-29T01:36:58.165Z,3.58
2023-06-29T01:39:33.759Z,4.60
2023-06-29T01:42:05.974Z,3.75
2023-06-29T01:44:37.421Z,3.50
2023-06-29T01:47:08.222Z,3.50
2023-06-29T01:49:36.292Z,3.22
2023-06-29T01:52:26.641Z,3.47
2023-06-29T01:54:54.574Z,3.60
2023-06-29T01:57:23.735Z,3.72
2023-06-29T01:59:56.233Z,4.15
2023-06-29T02:02:23.261Z,3.75
2023-06-29T02:04:50.059Z,3.38
2023-06-29T02:07:25.414Z,3.40
2023-06-29T02:09:53.482Z,3.65
2023-06-29T02:12:24.153Z,3.47
2023-06-29T02:14:51.355Z,3.30
2023-06-29T02:17:23.891Z,3.10
2023-06-29T02:19:55.637Z,3.60
2023-06-29T02:22:24.158Z,3.85
2023-06-29T02:24:52.424Z,3.40
2023-06-29T02:27:25.081Z,3.50
2023-06-29T02:29:54.624Z,3.65
2023-06-29T02:32:30.822Z,3.80
2023-06-29T02:35:04.529Z,3.67
2023-06-29T02:37:35.116Z,3.83
2023-06-29T02:40:04.104Z,3.58
2023-06-29T02:42:38.112Z,3.08
2023-06-29T02:45:09.896Z,3.13
2023-06-29T02:47:37.749Z,2.80
2023-06-29T02:50:09.624Z,3.05
2023-06-29T02:52:41.883Z,3.45
2023-06-29T02:55:09.202Z,3.15
2023-06-29T02:57:40.973Z,3.67
2023-06-29T03:00:15.621Z,3.50
2023-06-29T03:02:42.519Z,3.22
2023-06-29T03:05:10.072Z,3.33
2023-06-29T03:07:48.638Z,3.22
2023-06-29T03:10:17.497Z,3.00
2023-06-29T03:12:44.444Z,3.55
2023-06-29T03:15:12.084Z,3.20
2023-06-29T03:17:39.177Z,3.38
2023-06-29T03:20:07.781Z,3.25
2023-06-29T03:22:36.592Z,3.10
2023-06-29T03:25:06.189Z,3.30
2023-06-29T03:27:33.492Z,2.90
2023-06-29T03:30:01.233Z,3.00
2023-06-29T03:32:27.902Z,2.92
2023-06-29T03:34:59.056Z,3.10
2023-06-29T03:37:27.418Z,3.22
2023-06-29T03:39:54.280Z,3.40
2023-06-29T03:42:22.127Z,3.60
2023-06-29T03:44:53.010Z,3.30
2023-06-29T03:47:23.270Z,3.00
2023-06-29T03:49:51.584Z,3.90
2023-06-29T03:52:18.328Z,3.58
2023-06-29T03:54:45.298Z,3.03
2023-06-29T03:57:14.916Z,2.90
2023-06-29T03:59:41.544Z,3.53
2023-06-29T04:02:09.889Z,3.00
2023-06-29T04:04:41.908Z,3.42
2023-06-29T04:07:10.588Z,3.80
2023-06-29T04:09:38.563Z,3.65
2023-06-29T04:12:11.385Z,3.28
2023-06-29T04:14:38.017Z,3.70
2023-06-29T04:17:06.533Z,3.88
2023-06-29T04:19:34.131Z,3.28
2023-06-29T04:22:06.354Z,3.80
2023-06-29T04:24:33.440Z,3.25
2023-06-29T04:27:01.544Z,3.10
2023-06-29T04:29:33.487Z,3.80
2023-06-29T04:32:01.450Z,3.58
2023-06-29T04:34:29.616Z,3.40
2023-06-29T04:36:57.975Z,3.70
2023-06-29T04:39:29.298Z,3.88
2023-06-29T04:42:03.057Z,3.75
2023-06-29T04:44:40.218Z,3.45
2023-06-29T04:47:09.009Z,3.67
2023-06-29T04:49:54.102Z,4.22
2023-06-29T04:52:22.812Z,3.45
2023-06-29T04:54:50.436Z,3.53
2023-06-29T05:00:20.852Z,3.53
2023-06-29T05:02:55.427Z,3.85
2023-06-29T05:05:26.489Z,4.00
2023-06-29T05:07:55.288Z,3.95
2023-06-29T05:10:25.525Z,4.03
2023-06-29T05:12:54.287Z,3.50
2023-06-29T05:15:22.872Z,3.40
2023-06-29T05:17:53.142Z,4.05
2023-06-29T05:20:20.948Z,3.90
2023-06-29T05:22:48.804Z,3.30
2023-06-29T05:25:18.111Z,3.55
2023-06-29T05:27:55.560Z,3.83
2023-06-29T05:30:29.513Z,3.83
2023-06-29T05:32:56.465Z,3.83
2023-06-29T05:35:24.472Z,3.25
2023-06-29T05:37:53.996Z,3.45
2023-06-29T05:40:23.297Z,3.53
2023-06-29T05:42:50.075Z,3.33
2023-06-29T05:45:24.814Z,3.63
2023-06-29T05:47:55.904Z,3.60
2023-06-29T05:50:23.090Z,3.80
2023-06-29T05:52:51.304Z,3.42
2023-06-29T05:55:29.483Z,3.30
2023-06-29T05:57:56.094Z,3.60
2023-06-29T06:00:29.014Z,3.13
2023-06-29T06:05:25.153Z,3.13
2023-06-29T06:07:53.919Z,3.30
2023-06-29T06:10:22.276Z,3.85
2023-06-29T06:12:53.640Z,3.70
2023-06-29T06:15:20.301Z,4.03
2023-06-29T06:17:53.042Z,3.80
2023-06-29T06:20:21.039Z,3.53
2023-06-29T06:22:47.655Z,4.10
2023-06-29T06:25:16.584Z,3.20
2023-06-29T06:27:43.282Z,3.65
2023-06-29T06:30:10.344Z,3.70
2023-06-29T06:32:41.387Z,4.18
2023-06-29T06:35:13.540Z,3.72
2023-06-29T06:37:42.104Z,3.75
2023-06-29T06:40:09.941Z,3.80
2023-06-29T06:42:40.042Z,3.42
2023-06-29T06:45:08.874Z,3.53
2023-06-29T06:47:39.345Z,4.05
2023-06-29T06:50:06.970Z,3.90
2023-06-29T06:52:36.043Z,3.60
2023-06-29T06:55:03.310Z,3.75
2023-06-29T06:57:29.972Z,3.60
2023-06-29T06:59:58.089Z,3.80
2023-06-29T07:02:26.625Z,3.60
2023-06-29T07:04:54.609Z,3.30
2023-06-29T07:07:23.863Z,3.10
2023-06-29T07:09:50.518Z,3.42
2023-06-29T07:12:17.480Z,3.33
2023-06-29T07:14:45.207Z,3.67
2023-06-29T07:17:12.248Z,3.42
2023-06-29T07:24:40.258Z,3.45
2023-06-29T07:27:12.403Z,3.63
2023-06-29T07:29:44.192Z,3.30
2023-06-29T07:32:10.840Z,3.13
2023-06-29T07:34:37.530Z,3.28
2023-06-29T07:37:04.850Z,3.75
2023-06-29T07:39:32.016Z,3.42
2023-06-29T07:42:00.038Z,3.40
2023-06-29T07:44:26.745Z,3.70
2023-06-29T07:46:54.545Z,3.47
2023-06-29T07:49:23.068Z,2.92
2023-06-29T07:51:50.333Z,3.13
2023-06-29T07:54:18.235Z,3.15
2023-06-29T07:59:14.894Z,3.30
2023-06-29T08:01:43.220Z,2.90
2023-06-29T08:04:10.529Z,2.80
2023-06-29T08:06:50.834Z,2.63
2023-06-29T08:09:18.555Z,2.42
2023-06-29T08:11:45.368Z,2.95
2023-06-29T08:14:12.029Z,2.60
2023-06-29T08:16:38.806Z,2.60
2023-06-29T08:19:09.657Z,2.50
2023-06-29T08:21:36.380Z,2.58
2023-06-29T08:24:04.615Z,2.95
2023-06-29T08:26:33.575Z,2.60
2023-06-29T08:29:01.603Z,2.90
2023-06-29T08:31:28.496Z,2.58
2023-06-29T08:33:55.262Z,2.63
2023-06-29T08:36:21.991Z,2.85
2023-06-29T08:38:50.224Z,2.95
2023-06-29T08:41:17.842Z,2.60
2023-06-29T08:43:48.675Z,3.10
2023-06-29T08:46:15.443Z,2.90
2023-06-29T08:48:45.893Z,2.95
2023-06-29T08:51:15.259Z,3.20
2023-06-29T08:53:43.082Z,2.75
2023-06-29T08:56:13.667Z,3.10
2023-06-29T08:58:41.104Z,2.47
2023-06-29T09:01:08.601Z,3.15
2023-06-29T09:03:37.483Z,3.03
2023-06-29T09:06:05.007Z,3.00
2023-06-29T09:08:31.862Z,3.20
2023-06-29T09:10:59.254Z,2.70
2023-06-29T09:13:28.938Z,3.22
2023-06-29T09:15:55.974Z,2.90
2023-06-29T09:18:29.728Z,3.08
2023-06-29T09:20:57.630Z,3.15
2023-06-29T09:23:27.220Z,2.72
2023-06-29T09:25:57.245Z,2.92
2023-06-29T09:28:24.122Z,3.00
2023-06-29T09:30:51.468Z,3.08
2023-06-29T09:33:18.292Z,3.17
2023-06-29T09:35:47.018Z,2.88
2023-06-29T09:38:20.565Z,3.20
2023-06-29T09:40:52.592Z,2.97
2023-06-29T09:43:27.667Z,3.00
2023-06-29T09:46:08.240Z,3.10
2023-06-29T09:51:24.369Z,2.90
2023-06-29T09:53:53.174Z,2.72
2023-06-29T09:56:27.876Z,2.65
2023-06-29T09:58:57.712Z,3.20
2023-06-29T10:01:30.140Z,3.72
2023-06-29T10:06:35.046Z,3.22
2023-06-29T10:09:14.356Z,3.35
2023-06-29T10:11:45.696Z,3.10
2023-06-29T10:14:16.293Z,3.25
2023-06-29T10:16:51.312Z,2.85
2023-06-29T10:19:21.965Z,3.10
2023-06-29T10:21:54.203Z,3.42
2023-06-29T10:24:27.120Z,2.83
2023-06-29T10:26:55.406Z,3.20
2023-06-29T10:29:24.286Z,2.97
2023-06-29T10:32:01.385Z,3.58
2023-06-29T10:34:28.338Z,3.65
2023-06-29T10:37:01.048Z,3.63
2023-06-29T10:39:42.876Z,3.92
2023-06-29T10:42:13.685Z,3.55
2023-06-29T10:44:40.778Z,4.03
2023-06-29T10:47:07.536Z,4.53
2023-06-29T10:49:34.641Z,3.63
2023-06-29T10:52:05.848Z,4.63
2023-06-29T10:54:32.722Z,3.55
2023-06-29T10:57:06.857Z,3.90
2023-06-29T10:59:35.800Z,3.40
2023-06-29T11:02:04.544Z,3.70
2023-06-29T11:04:33.253Z,4.38
2023-06-29T11:07:08.724Z,3.20
2023-06-29T11:09:35.905Z,3.30
2023-06-29T11:12:03.041Z,3.05
2023-06-29T11:14:29.950Z,3.13
2023-06-29T11:16:57.013Z,3.10
2023-06-29T11:19:30.137Z,3.17
2023-06-29T11:21:58.198Z,3.50
2023-06-29T11:24:24.892Z,3.47
2023-06-29T11:26:52.173Z,3.60
2023-06-29T11:29:19.170Z,3.40
2023-06-29T11:31:46.177Z,3.10
2023-06-29T11:34:14.140Z,3.70
2023-06-29T11:36:40.855Z,3.85
2023-06-29T11:39:13.288Z,4.20
2023-06-29T11:41:42.082Z,3.83
2023-06-29T11:44:12.464Z,4.00
2023-06-29T11:46:44.531Z,4.15
2023-06-29T11:49:11.615Z,3.83
2023-06-29T11:51:40.505Z,3.85
2023-06-29T11:54:09.015Z,4.22
2023-06-29T11:56:37.476Z,4.00
2023-06-29T11:59:13.597Z,3.92
2023-06-29T12:01:40.804Z,4.20
2023-06-29T12:04:08.901Z,4.25
2023-06-29T12:06:36.092Z,4.20
2023-06-29T12:09:12.956Z,5.10
2023-06-29T12:11:40.986Z,5.13
2023-06-29T12:14:11.177Z,5.38
2023-06-29T12:19:15.215Z,5.68
2023-06-29T12:21:43.038Z,6.07
2023-06-29T12:24:10.165Z,5.00
2023-06-29T12:26:38.686Z,5.53
2023-06-29T12:29:06.100Z,5.47
2023-06-29T12:31:32.719Z,5.45
2023-06-29T12:33:59.949Z,5.10
2023-06-29T12:36:27.394Z,4.65
2023-06-29T12:38:55.443Z,5.30
2023-06-29T12:41:22.146Z,4.63
2023-06-29T12:43:49.430Z,5.20
2023-06-29T12:46:16.083Z,5.20
2023-06-29T12:48:45.130Z,5.00
2023-06-29T12:51:11.870Z,5.40
2023-06-29T12:53:42.556Z,5.10
2023-06-29T12:56:12.479Z,4.65
2023-06-29T12:58:39.215Z,5.10
2023-06-29T13:01:08.619Z,5.05
2023-06-29T13:03:35.416Z,5.25
2023-06-29T13:06:02.113Z,4.63
2023-06-29T13:08:31.025Z,5.05
2023-06-29T13:10:57.801Z,6.40
2023-06-29T13:13:24.719Z,5.30
2023-06-29T13:15:52.815Z,4.78
2023-06-29T13:18:20.561Z,5.05
2023-06-29T13:20:47.197Z,4.55
2023-06-29T13:23:13.877Z,4.65
2023-06-29T13:25:41.064Z,5.20
2023-06-29T13:28:07.708Z,4.70
2023-06-29T13:30:34.445Z,4.95
2023-06-29T13:33:01.143Z,4.93
2023-06-29T13:35:28.037Z,4.32
2023-06-29T13:37:54.633Z,7.43
2023-06-29T13:40:21.256Z,5.93
2023-06-29T13:42:48.246Z,6.20
2023-06-29T13:45:14.840Z,5.80
2023-06-29T13:47:43.262Z,5.22
2023-06-29T13:50:14.272Z,5.40
2023-06-29T13:52:48.562Z,7.45
2023-06-29T13:58:37.169Z,5.95
2023-06-29T14:01:18.154Z,6.20
2023-06-29T14:03:52.203Z,7.60
2023-06-29T14:06:22.120Z,11.10
2023-06-29T14:12:06.408Z,10.80
2023-06-29T14:14:42.024Z,13.35
2023-06-29T14:17:20.670Z,12.40
2023-06-29T14:19:58.808Z,19.35
2023-06-29T14:22:29.358Z,14.05
2023-06-29T14:25:01.280Z,15.05
2023-06-29T14:27:30.375Z,66.10
2023-06-29T14:30:00.945Z,26.65
2023-06-29T14:32:30.935Z,77.85
2023-06-29T14:35:01.153Z,24.00
2023-06-29T14:37:38.209Z,36.78
2023-06-29T14:40:08.305Z,28.17
2023-06-29T14:42:35.221Z,15.02
2023-06-29T14:45:02.330Z,13.77
2023-06-29T14:47:30.485Z,12.63
2023-06-29T14:49:57.356Z,12.88
2023-06-29T14:52:25.326Z,13.52
2023-06-29T14:54:52.054Z,12.93
2023-06-29T14:57:18.798Z,12.13
2023-06-29T14:59:45.434Z,11.75
2023-06-29T15:02:12.063Z,12.00
2023-06-29T15:04:38.625Z,12.35
2023-06-29T15:07:05.444Z,12.82
2023-06-29T15:09:32.240Z,12.38
2023-06-29T15:11:59.024Z,12.80
2023-06-29T15:14:26.878Z,13.93
2023-06-29T15:16:53.582Z,14.20
2023-06-29T15:19:20.303Z,13.48
2023-06-29T15:21:47.191Z,14.18
2023-06-29T15:24:14.146Z,12.75
2023-06-29T15:26:42.341Z,12.85
2023-06-29T15:29:08.956Z,13.85
2023-06-29T15:31:35.885Z,13.25
2023-06-29T15:34:03.358Z,15.30
2023-06-29T15:36:30.021Z,12.98
2023-06-29T15:38:56.635Z,13.77
2023-06-29T15:41:23.387Z,14.60
2023-06-29T15:43:50.039Z,15.25
2023-06-29T15:46:17.860Z,14.75
2023-06-29T15:48:44.691Z,14.63
2023-06-29T15:51:11.907Z,13.77
2023-06-29T15:53:38.733Z,14.30
2023-06-29T15:56:05.338Z,14.70
2023-06-29T15:58:31.967Z,14.20
2023-06-29T16:00:58.564Z,13.57
2023-06-29T16:03:25.358Z,13.95
2023-06-29T16:05:52.087Z,13.90
2023-06-29T16:08:18.974Z,14.15
2023-06-29T16:11:00.284Z,14.07
2023-06-29T16:13:26.912Z,13.63
2023-06-29T16:15:53.682Z,13.75
2023-06-29T16:18:26.295Z,14.23
2023-06-29T16:20:53.032Z,14.13
2023-06-29T16:23:19.628Z,13.23
2023-06-29T16:25:46.485Z,14.07
2023-06-29T16:28:13.374Z,14.10
2023-06-29T16:30:40.238Z,13.32
2023-06-29T16:33:06.977Z,14.07
2023-06-29T16:35:33.590Z,13.25
2023-06-29T16:38:02.584Z,12.82
2023-06-29T16:40:29.254Z,13.10
2023-06-29T16:42:55.882Z,14.10
2023-06-29T16:45:22.655Z,12.43
2023-06-29T16:47:49.840Z,12.88
2023-06-29T16:50:16.479Z,13.02
2023-06-29T16:52:43.103Z,13.10
2023-06-29T16:55:09.914Z,13.57
2023-06-29T16:57:36.616Z,13.13
2023-06-29T17:00:04.020Z,13.52
2023-06-29T17:02:30.642Z,12.35
2023-06-29T17:04:57.345Z,13.85
2023-06-29T17:07:27.079Z,13.18
2023-06-29T17:09:53.686Z,13.80
2023-06-29T17:12:20.460Z,12.18
2023-06-29T17:14:47.315Z,12.60
2023-06-29T17:17:14.065Z,12.02
2023-06-29T17:19:41.001Z,12.75
2023-06-29T17:22:11.481Z,12.88
2023-06-29T17:24:39.025Z,12.95
2023-06-29T17:27:06.380Z,12.93
2023-06-29T17:29:33.069Z,13.70
2023-06-29T17:32:01.091Z,13.18
2023-06-29T17:34:27.773Z,13.63
2023-06-29T17:36:54.414Z,12.93
2023-06-29T17:39:22.866Z,12.93
2023-06-29T17:41:49.450Z,14.43
2023-06-29T17:44:16.396Z,13.48
2023-06-29T17:46:43.203Z,13.05
2023-06-29T17:49:09.946Z,13.50
2023-06-29T17:51:36.608Z,13.07
2023-06-29T17:54:04.884Z,13.90
2023-06-29T17:56:31.568Z,13.90
2023-06-29T17:58:58.354Z,15.25
2023-06-29T18:01:25.088Z,14.13
2023-06-29T18:03:52.039Z,14.73
2023-06-29T18:06:19.603Z,14.70
2023-06-29T18:08:46.726Z,13.25
2023-06-29T18:11:13.608Z,13.82
2023-06-29T18:13:40.266Z,13.38
2023-06-29T18:16:06.969Z,12.88
2023-06-29T18:18:35.135Z,13.65
2023-06-29T18:21:02.798Z,14.07
2023-06-29T18:23:29.518Z,13.77
2023-06-29T18:25:56.247Z,13.07
2023-06-29T18:28:22.908Z,13.77
2023-06-29T18:30:49.610Z,12.65
2023-06-29T18:33:17.247Z,13.63
2023-06-29T18:35:44.397Z,13.27
2023-06-29T18:38:11.571Z,13.38
2023-06-29T18:40:38.185Z,13.88
2023-06-29T18:43:04.867Z,14.60
2023-06-29T18:45:31.940Z,13.85
2023-06-29T18:47:58.773Z,14.13
2023-06-29T18:50:25.533Z,13.82
2023-06-29T18:52:52.607Z,13.63
2023-06-29T18:55:19.301Z,14.40
2023-06-29T18:57:45.968Z,13.57
2023-06-29T19:00:13.065Z,14.35
2023-06-29T19:02:43.576Z,13.65
2023-06-29T19:05:11.378Z,13.98
2023-06-29T19:07:38.369Z,14.07
2023-06-29T19:10:05.492Z,15.10
2023-06-29T19:12:32.166Z,15.13
2023-06-29T19:14:59.014Z,14.65
2023-06-29T19:17:25.878Z,14.00
2023-06-29T19:19:52.615Z,14.43
2023-06-29T19:22:19.239Z,13.82
2023-06-29T19:24:45.886Z,14.40
2023-06-29T19:27:12.479Z,15.25
2023-06-29T19:29:39.155Z,15.13
2023-06-29T19:32:06.937Z,15.90
2023-06-29T19:34:34.576Z,14.35
2023-06-29T19:37:03.654Z,15.60
2023-06-29T19:39:32.017Z,15.40
2023-06-29T19:41:58.795Z,14.93
2023-06-29T19:44:25.535Z,16.27
2023-06-29T19:46:52.332Z,14.77
2023-06-29T19:49:20.107Z,15.70
2023-06-29T19:51:46.842Z,14.07
2023-06-29T19:54:13.692Z,14.35
2023-06-29T19:56:40.694Z,15.13
2023-06-29T19:59:07.805Z,14.43
2023-06-29T20:01:34.755Z,15.48
2023-06-29T20:04:01.745Z,15.43
2023-06-29T20:06:29.265Z,16.15
2023-06-29T20:08:56.175Z,15.40
2023-06-29T20:11:24.056Z,17.05
2023-06-29T20:13:51.406Z,16.92
2023-06-29T20:16:18.227Z,15.55
2023-06-29T20:18:44.982Z,16.25
2023-06-29T20:21:12.985Z,15.50
2023-06-29T20:23:39.683Z,16.15
2023-06-29T20:26:06.484Z,15.45
2023-06-29T20:28:33.160Z,16.05
2023-06-29T20:31:00.139Z,15.93
2023-06-29T20:33:26.908Z,16.15
2023-06-29T20:35:53.653Z,15.55
2023-06-29T20:38:20.341Z,16.02
2023-06-29T20:40:47.148Z,16.30
2023-06-29T20:43:14.619Z,15.82
2023-06-29T20:45:59.734Z,17.63
2023-06-29T20:48:26.503Z,15.30
2023-06-29T20:51:03.727Z,15.93
2023-06-29T20:53:36.274Z,16.63
2023-06-29T20:56:03.613Z,17.35
2023-06-29T20:58:30.323Z,16.70
2023-06-29T21:00:58.117Z,17.38
2023-06-29T21:03:25.984Z,19.27
2023-06-29T21:05:53.304Z,17.30
2023-06-29T21:08:20.319Z,19.23
2023-06-29T21:10:47.200Z,19.27
2023-06-29T21:13:14.144Z,19.42
2023-06-29T21:15:40.915Z,19.90
2023-06-29T21:18:08.237Z,18.73
2023-06-29T21:20:35.971Z,18.90
2023-06-29T21:23:02.779Z,19.33
2023-06-29T21:25:29.615Z,18.27
2023-06-29T21:27:57.017Z,18.30
2023-06-29T21:30:26.180Z,18.42
2023-06-29T21:32:53.164Z,19.52
2023-06-29T21:35:20.541Z,18.23
2023-06-29T21:37:47.547Z,17.95
2023-06-29T21:40:14.308Z,19.00
2023-06-29T21:42:41.038Z,19.15
2023-06-29T21:45:08.156Z,18.27
2023-06-29T21:47:34.907Z,18.75
2023-06-29T21:50:01.621Z,18.25
2023-06-29T21:52:28.334Z,19.48
2023-06-29T21:54:55.011Z,19.45
2023-06-29T21:57:21.842Z,20.20
2023-06-29T21:59:48.526Z,19.98
2023-06-29T22:02:15.310Z,19.85
2023-06-29T22:04:42.342Z,18.63
2023-06-29T22:07:16.376Z,20.05
2023-06-29T22:09:44.067Z,19.20
2023-06-29T22:12:12.892Z,18.77
2023-06-29T22:14:40.039Z,19.98
2023-06-29T22:17:08.488Z,18.15
2023-06-29T22:19:38.185Z,18.65
2023-06-29T22:22:05.423Z,19.15
2023-06-29T22:24:32.068Z,19.65
2023-06-29T22:26:58.763Z,18.42
2023-06-29T22:29:25.429Z,18.92
2023-06-29T22:31:52.264Z,16.60
2023-06-29T22:34:20.881Z,17.38
2023-06-29T22:36:50.800Z,16.38
2023-06-29T22:39:17.717Z,15.88
2023-06-29T22:41:44.372Z,16.85
2023-06-29T22:44:10.985Z,17.17
2023-06-29T22:46:37.767Z,17.27
2023-06-29T22:49:04.411Z,18.13
2023-06-29T22:51:31.125Z,15.77
2023-06-29T22:53:59.101Z,16.60
2023-06-29T22:56:26.052Z,16.13
2023-06-29T22:59:13.218Z,15.80
2023-06-29T23:01:41.397Z,17.80
2023-06-29T23:04:09.374Z,16.70
2023-06-29T23:06:42.362Z,15.98
2023-06-29T23:09:10.202Z,17.42
2023-06-29T23:11:38.230Z,16.52
2023-06-29T23:14:06.178Z,16.95
2023-06-29T23:16:33.646Z,17.75
2023-06-29T23:19:01.454Z,15.82
2023-06-29T23:21:28.540Z,14.90
2023-06-29T23:23:56.260Z,15.48
2023-06-29T23:26:23.686Z,15.15
2023-06-29T23:28:52.028Z,13.77
2023-06-29T23:31:19.612Z,12.50
2023-06-29T23:33:49.868Z,12.82
2023-06-29T23:36:22.663Z,12.23
2023-06-29T23:38:50.599Z,12.95
2023-06-29T23:41:20.163Z,12.75
2023-06-29T23:43:47.644Z,12.50
2023-06-29T23:46:14.871Z,12.70
2023-06-29T23:48:41.951Z,14.15
2023-06-29T23:51:12.586Z,14.10
2023-06-29T23:53:39.452Z,13.23
2023-06-29T23:56:06.185Z,14.40
2023-06-29T23:58:33.425Z,13.90
